createdAt,value
2022-12-14T00:01:37.837Z,65.68
2022-12-14T00:04:25.532Z,66.43
2022-12-14T00:07:13.184Z,54.15
2022-12-14T00:10:00.623Z,72.47
2022-12-14T00:12:48.351Z,71.25
2022-12-14T00:15:38.242Z,62.25
2022-12-14T00:18:28.895Z,64.72
2022-12-14T00:21:16.787Z,56.05
2022-12-14T00:24:04.816Z,61.85
2022-12-14T00:26:53.033Z,54.17
2022-12-14T00:29:40.709Z,58.83
2022-12-14T00:32:28.848Z,64.68
2022-12-14T00:35:19.368Z,57.28
2022-12-14T00:38:07.018Z,63.60
2022-12-14T00:40:55.323Z,53.45
2022-12-14T00:43:42.844Z,62.78
2022-12-14T00:46:30.581Z,63.33
2022-12-14T00:49:18.119Z,63.53
2022-12-14T00:52:07.274Z,82.10
2022-12-14T00:54:54.693Z,67.90
2022-12-14T00:57:42.353Z,87.07
2022-12-14T01:00:29.893Z,86.82
2022-12-14T01:03:17.576Z,82.40
2022-12-14T01:06:05.052Z,103.97
2022-12-14T01:08:54.130Z,143.52
2022-12-14T01:11:42.233Z,136.05
2022-12-14T01:14:29.944Z,158.70
2022-12-14T01:17:17.738Z,163.25
2022-12-14T01:20:06.047Z,141.38
2022-12-14T01:22:56.264Z,117.57
2022-12-14T01:25:45.425Z,122.97
2022-12-14T01:28:37.191Z,122.28
2022-12-14T01:31:27.422Z,122.88
2022-12-14T01:34:15.018Z,122.43
2022-12-14T01:37:02.340Z,110.25
2022-12-14T01:39:49.855Z,129.02
2022-12-14T01:42:38.937Z,113.93
2022-12-14T01:45:26.742Z,108.30
2022-12-14T01:48:15.364Z,94.75
2022-12-14T01:51:03.463Z,96.00
2022-12-14T01:53:51.683Z,100.85
2022-12-14T01:56:43.014Z,85.68
2022-12-14T01:59:36.063Z,73.85
2022-12-14T02:02:24.486Z,64.88
2022-12-14T02:09:32.259Z,68.00
2022-12-14T02:12:22.716Z,67.20
2022-12-14T02:15:13.570Z,79.55
2022-12-14T02:18:04.247Z,61.03
2022-12-14T02:21:20.397Z,85.13
2022-12-14T02:24:39.741Z,71.22
2022-12-14T02:28:09.273Z,76.20
2022-12-14T02:31:07.812Z,79.45
2022-12-14T02:33:59.716Z,74.68
2022-12-14T02:36:54.447Z,74.15
2022-12-14T02:39:49.782Z,73.17
2022-12-14T02:42:46.641Z,79.03
2022-12-14T02:45:39.792Z,60.45
2022-12-14T02:48:36.986Z,64.30
2022-12-14T02:51:32.509Z,63.30
2022-12-14T02:54:26.600Z,67.18
2022-12-14T02:57:22.178Z,56.90
2022-12-14T03:00:11.538Z,67.80
2022-12-14T03:02:59.692Z,56.88
2022-12-14T03:05:58.229Z,59.75
2022-12-14T03:08:48.388Z,54.90
2022-12-14T03:11:42.285Z,60.63
2022-12-14T03:14:35.239Z,63.85
2022-12-14T03:17:27.320Z,67.03
2022-12-14T03:20:20.835Z,67.47
2022-12-14T03:23:13.299Z,54.13
2022-12-14T03:26:08.091Z,54.65
2022-12-14T03:29:01.923Z,65.13
2022-12-14T03:31:54.266Z,59.83
2022-12-14T03:34:49.209Z,72.03
2022-12-14T03:37:41.974Z,48.28
2022-12-14T03:40:35.613Z,62.25
2022-12-14T03:43:30.534Z,70.53
2022-12-14T03:46:29.910Z,55.17
2022-12-14T03:49:21.578Z,56.47
2022-12-14T03:52:13.406Z,54.95
2022-12-14T03:55:09.204Z,55.30
2022-12-14T03:58:26.159Z,52.20
2022-12-14T04:04:08.130Z,40.50
2022-12-14T04:07:00.978Z,50.08
2022-12-14T04:09:54.113Z,60.20
2022-12-14T04:13:05.288Z,62.55
2022-12-14T04:16:15.755Z,56.42
2022-12-14T04:19:11.382Z,60.95
2022-12-14T04:22:03.905Z,65.95
2022-12-14T04:25:17.838Z,43.20
2022-12-14T04:28:32.262Z,59.13
2022-12-14T04:31:23.054Z,55.90
2022-12-14T04:34:13.988Z,54.78
2022-12-14T04:37:04.658Z,73.47
2022-12-14T04:39:55.196Z,56.80
2022-12-14T04:42:47.454Z,57.88
2022-12-14T04:45:37.074Z,54.83
2022-12-14T04:48:33.024Z,48.38
2022-12-14T04:51:27.406Z,64.40
2022-12-14T04:54:20.849Z,67.25
2022-12-14T04:57:19.124Z,63.80
2022-12-14T05:00:08.184Z,62.38
2022-12-14T05:03:14.625Z,69.15
2022-12-14T05:06:10.212Z,66.50
2022-12-14T05:09:15.778Z,49.47
2022-12-14T05:12:09.202Z,56.67
2022-12-14T05:15:03.403Z,73.10
2022-12-14T05:17:51.289Z,51.10
2022-12-14T05:20:39.521Z,57.20
2022-12-14T05:23:28.648Z,62.92
2022-12-14T05:26:16.578Z,63.33
2022-12-14T05:29:04.053Z,64.78
2022-12-14T05:31:52.784Z,63.30
2022-12-14T05:34:40.803Z,66.95
2022-12-14T05:37:28.448Z,56.10
2022-12-14T05:40:17.892Z,55.45
2022-12-14T05:43:06.553Z,75.32
2022-12-14T05:45:59.804Z,66.55
2022-12-14T05:48:49.375Z,65.93
2022-12-14T05:51:37.104Z,67.47
2022-12-14T05:54:24.503Z,62.25
2022-12-14T05:57:13.413Z,67.63
2022-12-14T06:00:00.651Z,61.47
2022-12-14T06:02:48.186Z,70.53
2022-12-14T06:05:36.167Z,93.82
2022-12-14T06:08:23.786Z,136.73
2022-12-14T06:11:12.690Z,125.75
2022-12-14T06:14:01.755Z,147.50
2022-12-14T06:16:49.044Z,139.32
2022-12-14T06:19:36.482Z,152.25
2022-12-14T06:22:24.242Z,118.60
2022-12-14T06:25:11.883Z,127.30
2022-12-14T06:27:59.367Z,140.50
2022-12-14T06:30:50.115Z,136.65
2022-12-14T06:33:37.847Z,133.32
2022-12-14T06:36:26.950Z,132.05
2022-12-14T06:39:16.755Z,107.70
2022-12-14T06:42:04.646Z,90.95
2022-12-14T06:44:52.207Z,103.53
2022-12-14T06:47:41.533Z,89.90
2022-12-14T06:50:29.028Z,75.43
2022-12-14T06:53:16.822Z,76.70
2022-12-14T06:56:08.611Z,76.45
2022-12-14T06:58:56.752Z,65.38
2022-12-14T07:01:49.751Z,82.07
2022-12-14T07:04:39.646Z,78.20
2022-12-14T07:07:27.096Z,83.07
2022-12-14T07:10:14.901Z,66.90
2022-12-14T07:13:02.467Z,68.20
2022-12-14T07:15:53.425Z,84.55
2022-12-14T07:18:40.732Z,82.10
2022-12-14T07:21:29.633Z,79.45
2022-12-14T07:24:18.061Z,87.68
2022-12-14T07:27:05.976Z,85.28
2022-12-14T07:29:53.614Z,90.18
2022-12-14T07:32:41.140Z,92.85
2022-12-14T07:35:28.702Z,84.60
2022-12-14T07:38:17.516Z,85.75
2022-12-14T07:41:06.778Z,87.80
2022-12-14T07:43:55.845Z,96.68
2022-12-14T07:46:43.347Z,84.30
2022-12-14T07:49:30.679Z,93.43
2022-12-14T07:52:17.955Z,91.22
2022-12-14T07:55:08.041Z,115.75
2022-12-14T07:57:55.403Z,87.45
2022-12-14T08:00:42.943Z,90.75
2022-12-14T08:03:30.704Z,98.95
2022-12-14T08:06:21.134Z,107.22
2022-12-14T08:09:10.096Z,99.95
2022-12-14T08:11:59.277Z,104.22
2022-12-14T08:14:47.246Z,98.80
2022-12-14T08:17:36.505Z,108.75
2022-12-14T08:20:24.533Z,100.18
2022-12-14T08:23:12.187Z,98.97
2022-12-14T08:26:01.973Z,107.90
2022-12-14T08:28:50.925Z,110.90
2022-12-14T08:31:38.373Z,125.47
2022-12-14T08:34:25.851Z,109.97
2022-12-14T08:37:13.675Z,125.00
2022-12-14T08:40:00.997Z,126.20
2022-12-14T08:42:51.283Z,142.43
2022-12-14T08:45:40.306Z,131.43
2022-12-14T08:48:28.340Z,132.90
2022-12-14T08:51:16.000Z,123.63
2022-12-14T08:54:03.510Z,114.90
2022-12-14T08:56:50.925Z,130.77
2022-12-14T09:00:00.823Z,131.82
2022-12-14T09:02:51.291Z,108.53
2022-12-14T09:05:39.463Z,111.72
2022-12-14T09:08:27.240Z,119.95
2022-12-14T09:11:16.430Z,117.35
2022-12-14T09:14:03.840Z,134.55
2022-12-14T09:16:51.454Z,138.27
2022-12-14T09:19:40.519Z,134.85
2022-12-14T09:22:27.937Z,136.63
2022-12-14T09:25:15.776Z,127.20
2022-12-14T09:28:03.127Z,137.90
2022-12-14T09:30:56.800Z,143.80
2022-12-14T09:33:44.538Z,142.23
2022-12-14T09:36:33.581Z,159.32
2022-12-14T09:39:20.828Z,147.07
2022-12-14T09:42:21.577Z,135.85
2022-12-14T09:45:17.387Z,153.48
2022-12-14T09:48:15.674Z,139.23
2022-12-14T09:51:03.777Z,160.23
2022-12-14T09:54:06.651Z,144.73
2022-12-14T09:56:55.467Z,143.48
2022-12-14T09:59:44.173Z,133.10
2022-12-14T10:02:43.923Z,136.45
2022-12-14T10:05:51.609Z,145.15
2022-12-14T10:08:49.525Z,140.93
2022-12-14T10:11:49.118Z,125.20
2022-12-14T10:17:44.070Z,108.75
2022-12-14T10:20:43.233Z,124.15
2022-12-14T10:23:31.731Z,124.40
2022-12-14T10:26:24.037Z,120.35
2022-12-14T10:29:18.716Z,126.93
2022-12-14T10:32:20.450Z,111.30
2022-12-14T10:35:15.414Z,125.13
2022-12-14T10:38:07.674Z,117.28
2022-12-14T10:41:00.007Z,116.38
2022-12-14T10:43:54.554Z,111.78
2022-12-14T10:46:49.412Z,107.47
2022-12-14T10:49:43.193Z,98.15
2022-12-14T10:52:38.199Z,98.30
2022-12-14T10:55:32.072Z,104.10
2022-12-14T10:58:19.628Z,94.00
2022-12-14T11:01:13.395Z,83.00
2022-12-14T11:04:02.842Z,92.82
2022-12-14T11:06:50.775Z,87.57
2022-12-14T11:09:39.337Z,92.10
2022-12-14T11:12:28.324Z,83.47
2022-12-14T11:15:25.749Z,90.38
2022-12-14T11:18:28.794Z,87.32
2022-12-14T11:21:18.312Z,81.40
2022-12-14T11:24:06.856Z,75.53
2022-12-14T11:26:57.305Z,86.10
2022-12-14T11:29:47.665Z,86.05
2022-12-14T11:32:35.208Z,88.15
2022-12-14T11:35:22.991Z,89.72
2022-12-14T11:38:16.844Z,85.90
2022-12-14T11:41:11.001Z,81.50
2022-12-14T11:44:07.559Z,77.18
2022-12-14T11:46:56.807Z,88.60
2022-12-14T11:49:47.329Z,81.88
2022-12-14T11:52:43.341Z,77.55
2022-12-14T11:55:34.806Z,81.30
2022-12-14T11:58:26.503Z,76.72
2022-12-14T12:01:17.584Z,70.57
2022-12-14T12:04:05.554Z,73.15
2022-12-14T12:06:58.957Z,70.18
2022-12-14T12:09:48.706Z,66.00
2022-12-14T12:12:37.686Z,63.50
2022-12-14T12:15:31.429Z,58.17
2022-12-14T12:18:25.795Z,65.97
2022-12-14T12:21:17.985Z,64.97
2022-12-14T12:24:12.352Z,64.78
2022-12-14T12:27:02.695Z,62.17
2022-12-14T12:29:56.338Z,59.78
2022-12-14T12:32:49.931Z,58.53
2022-12-14T12:35:44.592Z,59.00
2022-12-14T12:38:50.394Z,49.78
2022-12-14T12:41:47.431Z,52.75
2022-12-14T12:44:49.780Z,52.17
2022-12-14T12:47:47.709Z,46.15
2022-12-14T12:50:38.454Z,49.28
2022-12-14T12:53:31.982Z,49.22
2022-12-14T12:56:22.646Z,51.35
2022-12-14T12:59:18.968Z,51.83
2022-12-14T13:02:29.706Z,53.08
2022-12-14T13:05:45.795Z,51.65
2022-12-14T13:08:33.740Z,49.95
2022-12-14T13:11:26.812Z,51.95
2022-12-14T13:14:24.418Z,52.28
2022-12-14T13:17:28.346Z,51.83
2022-12-14T13:20:23.284Z,44.05
2022-12-14T13:23:43.566Z,48.40
2022-12-14T13:30:18.580Z,45.05
2022-12-14T13:33:36.421Z,48.88
2022-12-14T13:39:50.846Z,36.22
2022-12-14T13:42:51.996Z,42.92
2022-12-14T13:45:42.749Z,48.22
2022-12-14T13:48:41.391Z,42.40
2022-12-14T13:51:33.232Z,42.63
2022-12-14T13:54:27.707Z,46.58
2022-12-14T13:57:23.390Z,45.85
2022-12-14T14:00:50.402Z,50.72
2022-12-14T14:04:14.631Z,43.35
2022-12-14T14:07:35.048Z,42.40
2022-12-14T14:10:33.577Z,54.60
2022-12-14T14:14:02.967Z,44.63
2022-12-14T14:16:56.357Z,53.50
2022-12-14T14:19:49.680Z,50.35
2022-12-14T14:22:38.003Z,57.88
2022-12-14T14:25:47.118Z,53.58
2022-12-14T14:28:38.153Z,46.28
2022-12-14T14:31:46.397Z,50.95
2022-12-14T14:34:47.060Z,61.10
2022-12-14T14:37:36.358Z,56.05
2022-12-14T14:40:51.337Z,53.25
2022-12-14T14:43:43.783Z,48.22
2022-12-14T14:46:42.127Z,62.65
2022-12-14T14:49:32.304Z,61.97
2022-12-14T14:53:02.418Z,59.65
2022-12-14T14:55:58.273Z,44.38
2022-12-14T14:58:47.123Z,44.93
2022-12-14T15:01:35.436Z,46.95
2022-12-14T15:04:26.462Z,43.58
2022-12-14T15:07:18.790Z,47.15
2022-12-14T15:10:22.193Z,39.42
2022-12-14T15:13:20.022Z,47.95
2022-12-14T15:16:28.806Z,46.33
2022-12-14T15:19:28.261Z,46.03
2022-12-14T15:22:18.697Z,45.67
2022-12-14T15:25:12.502Z,39.20
2022-12-14T15:28:06.519Z,50.22
2022-12-14T15:30:55.415Z,51.72
2022-12-14T15:33:48.070Z,59.63
2022-12-14T15:36:40.205Z,51.72
2022-12-14T15:39:35.880Z,56.03
2022-12-14T15:42:23.399Z,63.50
2022-12-14T15:45:15.439Z,65.47
2022-12-14T15:48:14.286Z,62.55
2022-12-14T15:51:05.604Z,60.67
2022-12-14T15:53:55.458Z,60.83
2022-12-14T15:56:46.278Z,60.38
2022-12-14T15:59:36.166Z,50.50
2022-12-14T16:02:28.733Z,54.55
2022-12-14T16:05:20.375Z,47.95
2022-12-14T16:08:12.105Z,57.08
2022-12-14T16:11:02.499Z,46.95
2022-12-14T16:13:50.856Z,43.83
2022-12-14T16:16:38.997Z,53.10
2022-12-14T16:19:31.484Z,43.78
2022-12-14T16:22:24.524Z,46.17
2022-12-14T16:25:22.716Z,43.72
2022-12-14T16:28:28.530Z,44.00
2022-12-14T16:31:21.120Z,44.80
2022-12-14T16:34:15.071Z,51.80
2022-12-14T16:37:31.673Z,50.38
2022-12-14T16:40:29.272Z,52.78
2022-12-14T16:43:30.067Z,45.63
2022-12-14T16:46:19.287Z,52.20
2022-12-14T16:49:22.191Z,46.15
2022-12-14T16:52:19.984Z,44.25
2022-12-14T16:55:13.506Z,45.15
2022-12-14T16:58:02.829Z,49.13
2022-12-14T17:00:59.689Z,42.03
2022-12-14T17:03:55.014Z,43.80
2022-12-14T17:06:47.722Z,45.22
2022-12-14T17:09:36.629Z,39.28
2022-12-14T17:12:26.078Z,42.25
2022-12-14T17:15:16.068Z,48.72
2022-12-14T17:18:05.735Z,45.40
2022-12-14T17:20:53.488Z,57.58
2022-12-14T17:23:42.934Z,58.53
2022-12-14T17:26:32.129Z,64.65
2022-12-14T17:29:21.977Z,69.00
2022-12-14T17:32:13.444Z,51.65
2022-12-14T17:35:01.277Z,51.75
2022-12-14T17:37:49.531Z,56.17
2022-12-14T17:40:38.120Z,56.35
2022-12-14T17:43:27.867Z,52.17
2022-12-14T17:46:16.119Z,60.63
2022-12-14T17:49:06.927Z,50.42
2022-12-14T17:51:54.565Z,50.33
2022-12-14T17:54:42.054Z,46.40
2022-12-14T17:57:29.486Z,56.70
2022-12-14T18:00:37.217Z,56.08
2022-12-14T18:03:24.609Z,65.15
2022-12-14T18:06:17.796Z,69.82
2022-12-14T18:09:07.952Z,71.47
2022-12-14T18:12:22.118Z,62.17
2022-12-14T18:15:03.226Z,76.18
2022-12-14T18:17:51.709Z,58.95
2022-12-14T18:20:42.124Z,66.63
2022-12-14T18:23:32.945Z,60.03
2022-12-14T18:26:22.493Z,62.05
2022-12-14T18:29:10.197Z,60.83
2022-12-14T18:31:58.022Z,62.10
2022-12-14T18:34:45.543Z,61.95
2022-12-14T18:37:33.826Z,68.63
2022-12-14T18:40:25.346Z,59.25
2022-12-14T18:43:18.410Z,58.28
2022-12-14T18:46:06.302Z,66.53
2022-12-14T18:48:53.990Z,62.10
2022-12-14T18:51:41.251Z,77.55
2022-12-14T18:54:28.622Z,62.13
2022-12-14T18:57:17.340Z,69.68
2022-12-14T19:00:06.059Z,74.30
2022-12-14T19:02:53.628Z,78.65
2022-12-14T19:05:41.519Z,74.72
2022-12-14T19:08:28.813Z,83.20
2022-12-14T19:11:25.873Z,81.85
2022-12-14T19:14:14.992Z,72.88
2022-12-14T19:17:02.877Z,82.25
2022-12-14T19:19:50.819Z,87.82
2022-12-14T19:22:38.703Z,75.68
2022-12-14T19:25:26.452Z,80.35
2022-12-14T19:28:31.479Z,77.43
2022-12-14T19:31:21.661Z,86.15
2022-12-14T19:34:09.984Z,71.55
2022-12-14T19:36:57.634Z,83.85
2022-12-14T19:39:45.467Z,83.25
2022-12-14T19:42:33.270Z,77.30
2022-12-14T19:45:20.789Z,82.05
2022-12-14T19:48:13.164Z,87.35
2022-12-14T19:51:04.685Z,75.63
2022-12-14T19:53:52.906Z,73.47
2022-12-14T19:56:40.906Z,73.15
2022-12-14T19:59:28.434Z,63.97
2022-12-14T20:02:17.239Z,65.32
2022-12-14T20:05:07.497Z,87.18
2022-12-14T20:07:55.114Z,71.05
2022-12-14T20:10:42.543Z,86.43
2022-12-14T20:13:31.467Z,95.93
2022-12-14T20:16:20.680Z,95.22
2022-12-14T20:19:08.467Z,82.80
2022-12-14T20:21:57.365Z,109.95
2022-12-14T20:24:47.086Z,100.22
2022-12-14T20:27:40.435Z,91.57
2022-12-14T20:30:28.192Z,86.97
2022-12-14T20:33:16.334Z,86.63
2022-12-14T20:36:04.053Z,84.82
2022-12-14T20:38:57.806Z,85.35
2022-12-14T20:41:45.620Z,86.30
2022-12-14T20:44:33.537Z,76.10
2022-12-14T20:47:21.052Z,84.10
2022-12-14T20:50:08.564Z,73.53
2022-12-14T20:52:56.214Z,89.28
2022-12-14T20:55:45.502Z,88.10
2022-12-14T20:58:33.215Z,85.32
2022-12-14T21:01:22.111Z,75.78
2022-12-14T21:04:10.617Z,87.47
2022-12-14T21:06:58.269Z,91.90
2022-12-14T21:09:45.663Z,74.32
2022-12-14T21:12:34.899Z,71.57
2022-12-14T21:15:22.630Z,74.97
2022-12-14T21:18:10.006Z,63.28
2022-12-14T21:21:04.806Z,63.58
2022-12-14T21:23:52.284Z,65.55
2022-12-14T21:26:40.858Z,63.17
2022-12-14T21:29:29.845Z,67.82
2022-12-14T21:32:18.441Z,60.13
2022-12-14T21:35:07.036Z,62.00
2022-12-14T21:37:54.519Z,61.90
2022-12-14T21:40:59.385Z,56.47
2022-12-14T21:43:46.989Z,64.38
2022-12-14T21:46:37.217Z,58.55
2022-12-14T21:49:25.405Z,62.13
2022-12-14T21:52:14.506Z,65.10
2022-12-14T21:55:03.568Z,69.07
2022-12-14T21:58:08.686Z,63.38
2022-12-14T22:00:56.392Z,59.33
2022-12-14T22:03:46.527Z,55.45
2022-12-14T22:06:36.965Z,61.65
2022-12-14T22:09:25.262Z,65.93
2022-12-14T22:12:13.539Z,68.97
2022-12-14T22:15:01.707Z,66.03
2022-12-14T22:17:50.762Z,68.95
2022-12-14T22:20:39.673Z,67.07
2022-12-14T22:23:27.421Z,76.40
2022-12-14T22:26:15.433Z,79.38
2022-12-14T22:29:02.815Z,66.20
2022-12-14T22:31:51.588Z,75.65
2022-12-14T22:34:39.666Z,68.90
2022-12-14T22:37:28.454Z,74.78
2022-12-14T22:40:16.488Z,79.05
2022-12-14T22:43:03.866Z,90.53
2022-12-14T22:45:51.423Z,97.50
2022-12-14T22:48:39.910Z,78.75
2022-12-14T22:51:29.227Z,80.63
2022-12-14T22:54:22.027Z,96.30
2022-12-14T22:57:14.550Z,93.10
2022-12-14T23:00:07.240Z,91.32
2022-12-14T23:02:56.079Z,82.13
2022-12-14T23:05:43.823Z,79.20
2022-12-14T23:08:31.291Z,99.78
2022-12-14T23:11:37.774Z,86.78
2022-12-14T23:14:42.318Z,77.13
2022-12-14T23:17:47.846Z,88.88
2022-12-14T23:20:53.207Z,83.43
2022-12-14T23:23:58.818Z,84.82
2022-12-14T23:27:09.276Z,87.53
2022-12-14T23:30:15.133Z,93.93
2022-12-14T23:33:20.629Z,82.55
2022-12-14T23:36:26.233Z,96.38
2022-12-14T23:39:31.304Z,100.30
2022-12-14T23:42:37.565Z,96.03
2022-12-14T23:45:42.908Z,101.85
2022-12-14T23:48:47.566Z,105.63
2022-12-14T23:51:53.158Z,97.72
2022-12-14T23:54:58.040Z,94.93
2022-12-14T23:58:04.380Z,115.00
